createdAt,value
2019-03-06T00:00:50.060Z,47.68
2019-03-06T00:03:42.034Z,47.21
2019-03-06T00:06:52.062Z,47.29
2019-03-06T00:10:02.931Z,47.23
2019-03-06T00:21:58.752Z,46.45
2019-03-06T00:34:35.081Z,47.35
2019-03-06T00:37:37.498Z,47.16
2019-03-06T00:41:01.583Z,46.93
2019-03-06T00:43:52.127Z,46.51
2019-03-06T00:49:53.905Z,46.00
2019-03-06T00:52:03.426Z,45.92
2019-03-06T00:54:34.052Z,45.54
2019-03-06T00:57:45.646Z,45.67
2019-03-06T01:00:18.568Z,45.52
2019-03-06T01:02:50.085Z,45.45
2019-03-06T01:05:24.773Z,45.47
2019-03-06T01:08:02.699Z,45.47
2019-03-06T01:10:37.712Z,45.38
2019-03-06T01:14:02.157Z,45.59
2019-03-06T01:17:00.331Z,45.69
2019-03-06T01:22:27.245Z,46.10
2019-03-06T01:28:18.006Z,46.55
2019-03-06T01:30:51.210Z,46.75
2019-03-06T01:33:43.057Z,46.79
2019-03-06T01:36:33.950Z,46.80
2019-03-06T01:39:44.483Z,47.02
2019-03-06T01:42:33.245Z,47.12
2019-03-06T01:45:07.007Z,47.10
2019-03-06T01:47:39.591Z,46.63
2019-03-06T01:50:28.953Z,46.83
2019-03-06T01:56:01.130Z,47.47
2019-03-06T01:58:55.060Z,47.38
2019-03-06T02:02:04.752Z,47.42
2019-03-06T02:05:14.289Z,47.53
2019-03-06T02:07:45.090Z,47.58
2019-03-06T02:13:19.191Z,47.24
2019-03-06T02:18:50.658Z,46.36
2019-03-06T02:24:22.580Z,46.17
2019-03-06T02:29:58.332Z,45.89
2019-03-06T02:35:13.154Z,46.24
2019-03-06T02:40:55.537Z,46.31
2019-03-06T02:46:48.928Z,46.88
2019-03-06T02:49:24.871Z,46.87
2019-03-06T02:51:58.768Z,46.93
2019-03-06T02:58:05.126Z,46.36
2019-03-06T03:01:13.176Z,46.40
2019-03-06T03:04:19.879Z,46.44
2019-03-06T03:07:34.467Z,46.12
2019-03-06T03:10:27.785Z,46.25
2019-03-06T03:16:04.741Z,46.65
2019-03-06T03:21:56.625Z,46.35
2019-03-06T03:24:35.502Z,46.07
2019-03-06T03:27:47.338Z,46.23
2019-03-06T03:33:41.502Z,46.84
2019-03-06T03:39:15.031Z,47.17
2019-03-06T03:45:05.302Z,47.48
2019-03-06T03:51:37.375Z,47.69
2019-03-06T03:54:34.211Z,47.46
2019-03-06T04:00:26.564Z,47.19
2019-03-06T04:03:05.271Z,47.06
2019-03-06T04:05:35.961Z,46.59
2019-03-06T04:11:11.145Z,46.92
2019-03-06T04:14:03.586Z,47.10
2019-03-06T04:17:25.982Z,47.30
2019-03-06T04:19:56.385Z,47.46
2019-03-06T04:22:50.016Z,47.52
2019-03-06T04:25:21.280Z,47.85
2019-03-06T04:27:52.290Z,48.02
2019-03-06T04:30:46.050Z,48.22
2019-03-06T04:33:37.640Z,48.13
2019-03-06T04:36:52.709Z,47.75
2019-03-06T04:39:43.447Z,47.71
2019-03-06T04:42:17.555Z,47.79
2019-03-06T04:45:17.651Z,47.53
2019-03-06T04:48:20.997Z,47.46
2019-03-06T04:50:56.007Z,47.39
2019-03-06T04:53:34.467Z,47.81
2019-03-06T04:56:12.819Z,48.08
2019-03-06T04:58:50.133Z,48.54
2019-03-06T05:01:39.861Z,48.83
2019-03-06T05:04:28.936Z,49.07
2019-03-06T05:07:46.661Z,49.31
2019-03-06T05:13:41.619Z,50.33
2019-03-06T05:22:47.012Z,50.62
2019-03-06T05:25:18.969Z,50.73
2019-03-06T05:28:14.641Z,51.00
2019-03-06T05:30:58.845Z,51.04
2019-03-06T05:33:50.032Z,51.04
2019-03-06T05:37:07.061Z,51.51
2019-03-06T05:46:01.121Z,52.28
2019-03-06T05:48:52.741Z,52.69
2019-03-06T05:51:23.905Z,52.88
2019-03-06T05:53:59.152Z,52.58
2019-03-06T05:56:48.795Z,52.35
2019-03-06T06:05:43.007Z,51.41
2019-03-06T06:11:07.574Z,51.27
2019-03-06T06:13:43.341Z,51.20
2019-03-06T06:16:14.954Z,51.46
2019-03-06T06:19:08.633Z,51.42
2019-03-06T06:22:01.145Z,51.31
2019-03-06T06:25:04.622Z,51.08
2019-03-06T06:27:45.545Z,50.99
2019-03-06T06:33:29.074Z,50.08
2019-03-06T06:36:08.502Z,48.85
2019-03-06T06:42:20.303Z,46.49
2019-03-06T06:44:53.347Z,45.39
2019-03-06T06:47:24.785Z,46.05
2019-03-06T06:50:20.414Z,46.05
2019-03-06T07:00:21.557Z,47.69
2019-03-06T07:03:46.817Z,47.53
2019-03-06T07:06:56.848Z,47.05
2019-03-06T07:09:48.204Z,46.66
2019-03-06T07:13:38.060Z,46.42
2019-03-06T07:16:36.973Z,46.21
2019-03-06T07:19:48.235Z,46.26
2019-03-06T07:25:55.189Z,44.22
2019-03-06T07:28:44.298Z,43.62
2019-03-06T07:31:34.030Z,43.54
2019-03-06T07:34:23.246Z,43.42
2019-03-06T07:37:39.782Z,43.43
2019-03-06T07:40:49.431Z,43.42
2019-03-06T07:43:59.398Z,43.26
2019-03-06T07:47:08.249Z,43.19
2019-03-06T07:50:20.248Z,43.74
2019-03-06T07:53:49.002Z,43.30
2019-03-06T08:06:41.399Z,42.35
2019-03-06T08:10:02.945Z,41.83
2019-03-06T08:12:52.536Z,41.63
2019-03-06T08:22:45.287Z,41.61
2019-03-06T08:25:13.053Z,40.93
2019-03-06T08:34:49.844Z,41.15
2019-03-06T08:37:25.528Z,40.88
2019-03-06T08:40:14.488Z,40.44
2019-03-06T08:49:36.241Z,39.61
2019-03-06T08:52:35.824Z,38.84
2019-03-06T08:55:25.055Z,38.51
2019-03-06T08:58:34.993Z,38.30
2019-03-06T09:05:04.442Z,36.33
2019-03-06T09:07:47.945Z,36.74
2019-03-06T09:11:02.435Z,35.89
2019-03-06T09:13:48.213Z,35.92
2019-03-06T09:16:37.971Z,35.80
2019-03-06T09:19:27.585Z,35.43
2019-03-06T09:22:18.780Z,34.77
2019-03-06T09:28:31.561Z,32.69
2019-03-06T09:31:22.327Z,33.04
2019-03-06T09:34:32.293Z,32.92
2019-03-06T09:37:41.003Z,33.03
2019-03-06T09:40:49.154Z,32.61
2019-03-06T09:44:20.010Z,32.63
2019-03-06T09:47:31.179Z,32.31
2019-03-06T09:50:53.699Z,32.24
2019-03-06T09:53:31.688Z,31.99
2019-03-06T09:56:39.707Z,31.34
2019-03-06T09:59:23.234Z,31.46
2019-03-06T10:02:53.375Z,31.40
2019-03-06T10:06:01.995Z,31.14
2019-03-06T10:09:11.014Z,31.05
2019-03-06T10:12:12.721Z,30.50
2019-03-06T10:15:16.031Z,30.73
2019-03-06T10:18:21.456Z,30.73
2019-03-06T10:24:27.386Z,30.07
2019-03-06T10:30:02.651Z,30.29
2019-03-06T10:33:07.351Z,30.29
2019-03-06T10:36:08.295Z,30.71
2019-03-06T10:42:09.712Z,29.99
2019-03-06T10:45:22.924Z,29.83
2019-03-06T10:51:26.401Z,28.31
2019-03-06T11:06:39.853Z,26.84
2019-03-06T11:09:44.848Z,26.27
2019-03-06T11:15:23.866Z,26.26
2019-03-06T11:18:07.411Z,25.57
2019-03-06T11:23:52.359Z,25.41
2019-03-06T11:26:42.376Z,25.23
2019-03-06T11:41:15.949Z,24.06
2019-03-06T11:49:56.887Z,23.71
2019-03-06T11:58:58.091Z,23.36
2019-03-06T12:04:30.881Z,23.61
2019-03-06T12:07:45.225Z,23.28
2019-03-06T12:13:55.253Z,23.66
2019-03-06T12:16:31.269Z,23.88
2019-03-06T12:19:10.818Z,23.33
2019-03-06T12:21:53.771Z,23.46
2019-03-06T12:27:22.854Z,23.66
2019-03-06T12:30:16.602Z,23.58
2019-03-06T12:33:11.650Z,23.60
2019-03-06T12:36:03.350Z,24.00
2019-03-06T12:38:35.113Z,24.02
2019-03-06T12:41:58.909Z,23.48
2019-03-06T12:44:18.080Z,23.51
2019-03-06T12:52:52.221Z,23.95
2019-03-06T12:59:32.621Z,23.92
2019-03-06T13:02:07.230Z,24.01
2019-03-06T13:04:41.377Z,24.38
2019-03-06T13:07:38.334Z,24.10
2019-03-06T13:13:43.731Z,24.05
2019-03-06T13:16:25.211Z,24.02
2019-03-06T13:18:58.525Z,24.02
2019-03-06T13:25:10.849Z,24.07
2019-03-06T13:28:10.598Z,24.13
2019-03-06T13:31:07.162Z,24.30
2019-03-06T13:46:43.183Z,23.97
2019-03-06T13:49:19.571Z,23.88
2019-03-06T13:52:19.475Z,24.05
2019-03-06T13:55:11.156Z,24.01
2019-03-06T13:58:15.171Z,23.62
2019-03-06T14:07:58.962Z,23.03
2019-03-06T14:10:51.427Z,23.69
2019-03-06T14:13:36.839Z,24.11
2019-03-06T14:16:32.605Z,24.11
2019-03-06T14:19:43.757Z,23.78
2019-03-06T14:22:58.935Z,23.70
2019-03-06T14:25:56.210Z,23.25
2019-03-06T14:31:38.608Z,22.81
2019-03-06T14:37:36.493Z,22.34
2019-03-06T14:40:52.542Z,21.97
2019-03-06T14:44:05.608Z,22.64
2019-03-06T14:47:15.477Z,22.78
2019-03-06T14:49:49.476Z,22.61
2019-03-06T14:52:22.218Z,22.25
2019-03-06T14:55:34.227Z,22.42
2019-03-06T15:08:11.750Z,21.76
2019-03-06T15:10:58.219Z,22.11
2019-03-06T15:19:43.762Z,23.12
2019-03-06T15:22:49.190Z,23.10
2019-03-06T15:25:32.117Z,23.22
2019-03-06T15:41:37.102Z,23.61
2019-03-06T15:44:11.251Z,23.29
2019-03-06T15:46:48.759Z,23.55
2019-03-06T15:50:02.269Z,23.90
2019-03-06T15:53:05.582Z,23.65
2019-03-06T15:55:45.840Z,23.78
2019-03-06T15:58:50.113Z,23.53
2019-03-06T16:04:57.489Z,23.80
2019-03-06T16:20:53.950Z,24.46
2019-03-06T16:24:24.268Z,24.54
2019-03-06T16:26:57.942Z,24.67
2019-03-06T16:29:33.887Z,24.93
2019-03-06T16:32:29.196Z,24.86
2019-03-06T16:35:47.045Z,24.94
2019-03-06T16:38:58.222Z,24.79
2019-03-06T16:45:25.855Z,25.38
2019-03-06T16:48:16.974Z,25.49
2019-03-06T16:51:27.789Z,25.50
2019-03-06T16:54:36.617Z,25.68
2019-03-06T16:57:11.044Z,25.99
2019-03-06T16:59:43.231Z,26.47
2019-03-06T17:11:36.901Z,27.16
2019-03-06T17:14:30.573Z,27.62
2019-03-06T17:23:29.191Z,28.42
2019-03-06T17:26:20.726Z,29.46
2019-03-06T17:29:23.497Z,30.42
2019-03-06T17:31:55.204Z,30.64
2019-03-06T17:34:42.435Z,31.17
2019-03-06T17:37:04.390Z,32.18
2019-03-06T17:43:26.382Z,33.97
2019-03-06T17:46:17.396Z,35.48
2019-03-06T17:48:49.684Z,36.83
2019-03-06T17:51:25.853Z,37.27
2019-03-06T18:03:59.423Z,39.75
2019-03-06T18:06:47.331Z,40.27
2019-03-06T18:09:58.362Z,40.97
2019-03-06T18:15:38.483Z,41.94
2019-03-06T18:18:12.666Z,41.96
2019-03-06T18:20:50.593Z,42.29
2019-03-06T18:23:25.351Z,42.78
2019-03-06T18:29:23.099Z,43.01
2019-03-06T18:32:08.599Z,42.99
2019-03-06T18:35:12.761Z,43.05
2019-03-06T18:38:35.263Z,42.34
2019-03-06T18:41:18.392Z,42.47
2019-03-06T18:44:07.395Z,42.51
2019-03-06T18:46:43.748Z,42.47
2019-03-06T18:49:48.452Z,42.77
2019-03-06T18:53:00.095Z,42.83
2019-03-06T18:55:43.072Z,42.71
2019-03-06T18:58:45.126Z,42.83
2019-03-06T19:01:32.283Z,42.62
2019-03-06T19:07:07.119Z,42.07
2019-03-06T19:13:20.062Z,42.92
2019-03-06T19:16:06.143Z,43.47
2019-03-06T19:19:16.859Z,43.31
2019-03-06T19:22:07.595Z,43.55
2019-03-06T19:27:59.180Z,43.70
2019-03-06T19:30:47.939Z,43.54
2019-03-06T19:33:44.386Z,42.24
2019-03-06T19:36:34.549Z,42.37
2019-03-06T19:46:15.692Z,41.88
2019-03-06T19:48:36.868Z,41.81
2019-03-06T19:54:34.395Z,41.79
2019-03-06T20:03:29.805Z,40.91
2019-03-06T20:07:03.442Z,41.83
2019-03-06T20:09:35.608Z,41.45
2019-03-06T20:12:08.635Z,41.98
2019-03-06T20:15:21.470Z,42.18
2019-03-06T20:18:23.922Z,42.18
2019-03-06T20:21:32.820Z,41.89
2019-03-06T20:24:13.515Z,43.05
2019-03-06T20:30:26.082Z,43.25
2019-03-06T20:33:36.762Z,43.74
2019-03-06T20:40:29.724Z,43.44
2019-03-06T20:46:40.387Z,44.05
2019-03-06T20:49:13.845Z,44.02
2019-03-06T20:51:56.014Z,44.39
2019-03-06T20:54:28.069Z,44.70
2019-03-06T20:57:17.305Z,44.35
2019-03-06T21:02:47.956Z,43.82
2019-03-06T21:05:18.065Z,43.62
2019-03-06T21:08:08.564Z,43.70
2019-03-06T21:11:04.550Z,43.74
2019-03-06T21:17:03.006Z,44.66
2019-03-06T21:20:09.796Z,44.36
2019-03-06T21:23:00.378Z,43.84
2019-03-06T21:26:10.647Z,44.58
2019-03-06T21:29:34.807Z,44.81
2019-03-06T21:32:16.950Z,44.61
2019-03-06T21:35:00.619Z,43.99
2019-03-06T21:37:44.656Z,44.60
2019-03-06T21:40:04.642Z,43.07
2019-03-06T21:43:12.369Z,42.84
2019-03-06T21:48:47.916Z,41.64
2019-03-06T21:51:26.710Z,41.57
2019-03-06T22:00:38.135Z,41.23
2019-03-06T22:03:50.270Z,40.92
2019-03-06T22:06:23.541Z,41.51
2019-03-06T22:09:21.914Z,41.25
2019-03-06T22:11:55.361Z,41.48
2019-03-06T22:14:44.547Z,41.33
2019-03-06T22:23:38.675Z,42.42
2019-03-06T22:26:10.391Z,42.00
2019-03-06T22:29:03.249Z,42.01
2019-03-06T22:31:37.119Z,42.51
2019-03-06T22:34:31.665Z,40.67
2019-03-06T22:40:29.639Z,42.82
2019-03-06T22:43:20.376Z,42.82
2019-03-06T22:46:32.525Z,42.42
2019-03-06T22:49:28.774Z,42.62
2019-03-06T22:52:37.888Z,42.17
2019-03-06T22:55:57.092Z,41.95
2019-03-06T22:59:04.824Z,41.95
2019-03-06T23:02:08.778Z,41.79
2019-03-06T23:07:48.639Z,41.75
2019-03-06T23:10:58.875Z,42.54
2019-03-06T23:14:12.005Z,42.18
2019-03-06T23:17:09.735Z,41.94
2019-03-06T23:20:00.899Z,41.05
2019-03-06T23:25:45.774Z,41.38
2019-03-06T23:28:52.132Z,39.22
2019-03-06T23:35:20.042Z,39.68
2019-03-06T23:44:32.918Z,40.86
2019-03-06T23:47:40.810Z,41.15
2019-03-06T23:54:02.967Z,40.81
